sensor_id;sensor_type;location;lat;lon;timestamp;temperature;humidity
64987;DHT22;67903;52.108;9.358;2024-02-04T00:00:06;8.90;90.40
64987;DHT22;67903;52.108;9.358;2024-02-04T00:02:58;8.80;89.90
64987;DHT22;67903;52.108;9.358;2024-02-04T00:05:44;8.80;90.00
64987;DHT22;67903;52.108;9.358;2024-02-04T00:08:29;8.60;90.50
64987;DHT22;67903;52.108;9.358;2024-02-04T00:11:15;8.60;91.40
64987;DHT22;67903;52.108;9.358;2024-02-04T00:14:02;8.60;91.40
64987;DHT22;67903;52.108;9.358;2024-02-04T00:16:48;8.50;91.80
64987;DHT22;67903;52.108;9.358;2024-02-04T00:19:33;8.60;91.20
64987;DHT22;67903;52.108;9.358;2024-02-04T00:22:19;8.60;90.40
64987;DHT22;67903;52.108;9.358;2024-02-04T00:25:05;8.60;89.60
64987;DHT22;67903;52.108;9.358;2024-02-04T00:27:51;8.60;89.50
64987;DHT22;67903;52.108;9.358;2024-02-04T00:30:37;8.60;89.60
64987;DHT22;67903;52.108;9.358;2024-02-04T00:33:23;8.60;89.20
64987;DHT22;67903;52.108;9.358;2024-02-04T00:36:08;8.60;89.40
64987;DHT22;67903;52.108;9.358;2024-02-04T00:38:54;8.60;89.40
64987;DHT22;67903;52.108;9.358;2024-02-04T00:41:39;8.60;89.30
64987;DHT22;67903;52.108;9.358;2024-02-04T00:44:25;8.80;88.00
64987;DHT22;67903;52.108;9.358;2024-02-04T00:47:10;8.70;88.20
64987;DHT22;67903;52.108;9.358;2024-02-04T00:49:56;8.60;88.60
64987;DHT22;67903;52.108;9.358;2024-02-04T00:52:42;8.70;88.10
64987;DHT22;67903;52.108;9.358;2024-02-04T00:55:27;8.60;88.20
64987;DHT22;67903;52.108;9.358;2024-02-04T00:58:13;8.70;87.30
64987;DHT22;67903;52.108;9.358;2024-02-04T01:00:58;8.70;87.20
64987;DHT22;67903;52.108;9.358;2024-02-04T01:03:44;8.60;87.20
64987;DHT22;67903;52.108;9.358;2024-02-04T01:06:29;8.70;86.40
64987;DHT22;67903;52.108;9.358;2024-02-04T01:09:25;8.80;86.20
64987;DHT22;67903;52.108;9.358;2024-02-04T01:12:10;8.80;85.70
64987;DHT22;67903;52.108;9.358;2024-02-04T01:14:56;8.80;85.80
64987;DHT22;67903;52.108;9.358;2024-02-04T01:17:41;8.80;85.90
64987;DHT22;67903;52.108;9.358;2024-02-04T01:20:27;8.70;86.10
64987;DHT22;67903;52.108;9.358;2024-02-04T01:23:12;8.70;86.10
64987;DHT22;67903;52.108;9.358;2024-02-04T01:25:58;8.70;86.20
64987;DHT22;67903;52.108;9.358;2024-02-04T01:28:44;8.60;87.00
64987;DHT22;67903;52.108;9.358;2024-02-04T01:31:30;8.80;85.60
64987;DHT22;67903;52.108;9.358;2024-02-04T01:34:17;8.90;84.70
64987;DHT22;67903;52.108;9.358;2024-02-04T01:37:02;8.60;86.70
64987;DHT22;67903;52.108;9.358;2024-02-04T01:39:49;8.70;86.70
64987;DHT22;67903;52.108;9.358;2024-02-04T01:42:35;8.60;86.80
64987;DHT22;67903;52.108;9.358;2024-02-04T01:45:20;8.80;86.30
64987;DHT22;67903;52.108;9.358;2024-02-04T01:48:06;8.80;86.80
64987;DHT22;67903;52.108;9.358;2024-02-04T01:50:53;8.80;86.10
64987;DHT22;67903;52.108;9.358;2024-02-04T01:53:41;8.80;86.40
64987;DHT22;67903;52.108;9.358;2024-02-04T01:56:27;8.80;86.60
64987;DHT22;67903;52.108;9.358;2024-02-04T01:59:13;8.80;86.60
64987;DHT22;67903;52.108;9.358;2024-02-04T02:02:02;8.90;86.30
64987;DHT22;67903;52.108;9.358;2024-02-04T02:04:47;8.90;85.50
64987;DHT22;67903;52.108;9.358;2024-02-04T02:07:33;8.90;86.10
64987;DHT22;67903;52.108;9.358;2024-02-04T02:10:19;8.80;86.70
64987;DHT22;67903;52.108;9.358;2024-02-04T02:13:22;8.80;86.70
64987;DHT22;67903;52.108;9.358;2024-02-04T02:16:13;8.80;87.60
64987;DHT22;67903;52.108;9.358;2024-02-04T02:19:13;8.80;88.30
64987;DHT22;67903;52.108;9.358;2024-02-04T02:22:10;8.70;89.80
64987;DHT22;67903;52.108;9.358;2024-02-04T02:25:00;8.60;91.30
64987;DHT22;67903;52.108;9.358;2024-02-04T02:27:48;8.60;92.30
64987;DHT22;67903;52.108;9.358;2024-02-04T02:30:35;8.60;92.90
64987;DHT22;67903;52.108;9.358;2024-02-04T02:33:20;8.50;93.20
64987;DHT22;67903;52.108;9.358;2024-02-04T02:36:13;8.50;93.40
64987;DHT22;67903;52.108;9.358;2024-02-04T02:39:13;8.50;93.40
64987;DHT22;67903;52.108;9.358;2024-02-04T02:42:03;8.60;93.10
64987;DHT22;67903;52.108;9.358;2024-02-04T02:44:50;8.60;93.20
64987;DHT22;67903;52.108;9.358;2024-02-04T02:47:36;8.60;93.70
64987;DHT22;67903;52.108;9.358;2024-02-04T02:50:23;8.60;93.40
64987;DHT22;67903;52.108;9.358;2024-02-04T02:53:09;8.50;93.60
64987;DHT22;67903;52.108;9.358;2024-02-04T02:55:55;8.50;94.40
64987;DHT22;67903;52.108;9.358;2024-02-04T02:58:40;8.50;94.70
64987;DHT22;67903;52.108;9.358;2024-02-04T03:01:26;8.50;94.90
64987;DHT22;67903;52.108;9.358;2024-02-04T03:04:12;8.80;92.70
64987;DHT22;67903;52.108;9.358;2024-02-04T03:06:57;8.80;93.00
64987;DHT22;67903;52.108;9.358;2024-02-04T03:09:43;8.90;92.30
64987;DHT22;67903;52.108;9.358;2024-02-04T03:12:29;8.90;91.90
64987;DHT22;67903;52.108;9.358;2024-02-04T03:15:14;8.90;92.00
64987;DHT22;67903;52.108;9.358;2024-02-04T03:18:00;9.00;91.20
64987;DHT22;67903;52.108;9.358;2024-02-04T03:20:46;9.00;90.60
64987;DHT22;67903;52.108;9.358;2024-02-04T03:23:31;9.10;90.30
64987;DHT22;67903;52.108;9.358;2024-02-04T03:26:17;9.00;90.90
64987;DHT22;67903;52.108;9.358;2024-02-04T03:29:07;9.00;90.90
64987;DHT22;67903;52.108;9.358;2024-02-04T03:31:52;9.00;90.60
64987;DHT22;67903;52.108;9.358;2024-02-04T03:34:42;9.10;90.50
64987;DHT22;67903;52.108;9.358;2024-02-04T03:37:29;9.10;90.80
64987;DHT22;67903;52.108;9.358;2024-02-04T03:40:15;9.10;90.90
64987;DHT22;67903;52.108;9.358;2024-02-04T03:43:00;9.00;91.70
64987;DHT22;67903;52.108;9.358;2024-02-04T03:45:47;9.00;92.20
64987;DHT22;67903;52.108;9.358;2024-02-04T03:48:33;9.00;92.10
64987;DHT22;67903;52.108;9.358;2024-02-04T03:51:21;9.00;91.50
64987;DHT22;67903;52.108;9.358;2024-02-04T03:54:07;9.00;91.90
64987;DHT22;67903;52.108;9.358;2024-02-04T03:56:52;9.00;91.60
64987;DHT22;67903;52.108;9.358;2024-02-04T03:59:38;9.10;91.40
64987;DHT22;67903;52.108;9.358;2024-02-04T04:02:23;9.10;91.40
64987;DHT22;67903;52.108;9.358;2024-02-04T04:05:12;9.10;91.20
64987;DHT22;67903;52.108;9.358;2024-02-04T04:07:58;9.10;91.30
64987;DHT22;67903;52.108;9.358;2024-02-04T04:10:44;9.20;90.50
64987;DHT22;67903;52.108;9.358;2024-02-04T04:13:30;9.20;89.90
64987;DHT22;67903;52.108;9.358;2024-02-04T04:16:21;9.10;89.60
64987;DHT22;67903;52.108;9.358;2024-02-04T04:19:07;9.20;88.90
64987;DHT22;67903;52.108;9.358;2024-02-04T04:21:53;9.20;86.80
64987;DHT22;67903;52.108;9.358;2024-02-04T04:24:40;9.20;86.30
64987;DHT22;67903;52.108;9.358;2024-02-04T04:27:25;9.10;86.90
64987;DHT22;67903;52.108;9.358;2024-02-04T04:30:11;9.20;84.70
64987;DHT22;67903;52.108;9.358;2024-02-04T04:32:56;9.20;83.80
64987;DHT22;67903;52.108;9.358;2024-02-04T04:35:43;9.20;84.00
64987;DHT22;67903;52.108;9.358;2024-02-04T04:38:29;9.20;83.60
64987;DHT22;67903;52.108;9.358;2024-02-04T04:41:15;9.20;83.40
64987;DHT22;67903;52.108;9.358;2024-02-04T04:44:00;9.20;82.70
64987;DHT22;67903;52.108;9.358;2024-02-04T04:46:46;9.20;81.60
64987;DHT22;67903;52.108;9.358;2024-02-04T04:49:31;9.20;81.10
64987;DHT22;67903;52.108;9.358;2024-02-04T04:52:17;9.20;81.30
64987;DHT22;67903;52.108;9.358;2024-02-04T04:55:03;9.20;81.40
64987;DHT22;67903;52.108;9.358;2024-02-04T04:57:48;9.20;81.90
64987;DHT22;67903;52.108;9.358;2024-02-04T05:00:34;9.30;81.90
64987;DHT22;67903;52.108;9.358;2024-02-04T05:03:20;9.20;82.20
64987;DHT22;67903;52.108;9.358;2024-02-04T05:06:06;9.40;81.00
64987;DHT22;67903;52.108;9.358;2024-02-04T05:08:52;9.40;81.20
64987;DHT22;67903;52.108;9.358;2024-02-04T05:11:37;9.40;80.40
64987;DHT22;67903;52.108;9.358;2024-02-04T05:14:22;9.40;80.20
64987;DHT22;67903;52.108;9.358;2024-02-04T05:17:08;9.40;79.70
64987;DHT22;67903;52.108;9.358;2024-02-04T05:19:54;9.40;79.80
64987;DHT22;67903;52.108;9.358;2024-02-04T05:22:40;9.40;80.30
64987;DHT22;67903;52.108;9.358;2024-02-04T05:25:26;9.40;80.80
64987;DHT22;67903;52.108;9.358;2024-02-04T05:28:11;9.40;81.00
64987;DHT22;67903;52.108;9.358;2024-02-04T05:30:57;9.50;79.00
64987;DHT22;67903;52.108;9.358;2024-02-04T05:33:43;9.40;80.10
64987;DHT22;67903;52.108;9.358;2024-02-04T05:36:28;9.40;80.70
64987;DHT22;67903;52.108;9.358;2024-02-04T05:39:15;9.40;79.00
64987;DHT22;67903;52.108;9.358;2024-02-04T05:42:00;9.40;79.40
64987;DHT22;67903;52.108;9.358;2024-02-04T05:44:46;9.40;78.90
64987;DHT22;67903;52.108;9.358;2024-02-04T05:47:31;9.40;78.70
64987;DHT22;67903;52.108;9.358;2024-02-04T05:50:17;9.40;78.60
64987;DHT22;67903;52.108;9.358;2024-02-04T05:53:03;9.40;78.80
64987;DHT22;67903;52.108;9.358;2024-02-04T05:55:49;9.50;78.30
64987;DHT22;67903;52.108;9.358;2024-02-04T05:58:34;9.40;78.90
64987;DHT22;67903;52.108;9.358;2024-02-04T06:01:20;9.40;79.00
64987;DHT22;67903;52.108;9.358;2024-02-04T06:04:05;9.40;78.90
64987;DHT22;67903;52.108;9.358;2024-02-04T06:06:51;9.40;78.70
64987;DHT22;67903;52.108;9.358;2024-02-04T06:09:36;9.40;78.90
64987;DHT22;67903;52.108;9.358;2024-02-04T06:12:22;9.40;78.90
64987;DHT22;67903;52.108;9.358;2024-02-04T06:15:14;9.40;78.80
64987;DHT22;67903;52.108;9.358;2024-02-04T06:18:00;9.40;77.30
64987;DHT22;67903;52.108;9.358;2024-02-04T06:20:46;9.40;76.40
64987;DHT22;67903;52.108;9.358;2024-02-04T06:23:32;9.40;76.70
64987;DHT22;67903;52.108;9.358;2024-02-04T06:26:17;9.40;76.00
64987;DHT22;67903;52.108;9.358;2024-02-04T06:29:03;9.40;75.90
64987;DHT22;67903;52.108;9.358;2024-02-04T06:31:48;9.40;76.40
64987;DHT22;67903;52.108;9.358;2024-02-04T06:34:34;9.30;76.70
64987;DHT22;67903;52.108;9.358;2024-02-04T06:37:20;9.30;76.50
64987;DHT22;67903;52.108;9.358;2024-02-04T06:40:06;9.20;76.00
64987;DHT22;67903;52.108;9.358;2024-02-04T06:42:52;9.20;75.90
64987;DHT22;67903;52.108;9.358;2024-02-04T06:45:37;9.20;75.60
64987;DHT22;67903;52.108;9.358;2024-02-04T06:48:23;9.20;75.30
64987;DHT22;67903;52.108;9.358;2024-02-04T06:51:08;9.20;75.70
64987;DHT22;67903;52.108;9.358;2024-02-04T06:53:54;9.20;75.00
64987;DHT22;67903;52.108;9.358;2024-02-04T06:56:40;9.20;73.70
64987;DHT22;67903;52.108;9.358;2024-02-04T06:59:25;9.40;73.50
64987;DHT22;67903;52.108;9.358;2024-02-04T07:02:11;9.40;73.70
64987;DHT22;67903;52.108;9.358;2024-02-04T07:04:56;9.50;73.20
64987;DHT22;67903;52.108;9.358;2024-02-04T07:07:42;9.40;73.30
64987;DHT22;67903;52.108;9.358;2024-02-04T07:10:28;9.40;73.30
64987;DHT22;67903;52.108;9.358;2024-02-04T07:13:13;9.40;73.30
64987;DHT22;67903;52.108;9.358;2024-02-04T07:15:59;9.30;73.50
64987;DHT22;67903;52.108;9.358;2024-02-04T07:18:44;9.30;73.70
64987;DHT22;67903;52.108;9.358;2024-02-04T07:21:30;9.20;73.80
64987;DHT22;67903;52.108;9.358;2024-02-04T07:24:16;9.30;73.40
64987;DHT22;67903;52.108;9.358;2024-02-04T07:27:01;9.30;73.90
64987;DHT22;67903;52.108;9.358;2024-02-04T07:29:47;9.30;73.40
64987;DHT22;67903;52.108;9.358;2024-02-04T07:32:32;9.30;73.30
64987;DHT22;67903;52.108;9.358;2024-02-04T07:35:19;9.20;73.20
64987;DHT22;67903;52.108;9.358;2024-02-04T07:38:05;9.30;73.40
64987;DHT22;67903;52.108;9.358;2024-02-04T07:40:50;9.30;72.70
64987;DHT22;67903;52.108;9.358;2024-02-04T07:43:36;9.20;73.30
64987;DHT22;67903;52.108;9.358;2024-02-04T07:46:21;9.30;73.00
64987;DHT22;67903;52.108;9.358;2024-02-04T07:49:07;9.30;73.00
64987;DHT22;67903;52.108;9.358;2024-02-04T07:51:52;9.30;73.10
64987;DHT22;67903;52.108;9.358;2024-02-04T07:54:38;9.40;72.80
64987;DHT22;67903;52.108;9.358;2024-02-04T07:57:23;9.20;72.40
64987;DHT22;67903;52.108;9.358;2024-02-04T08:00:09;9.20;72.50
64987;DHT22;67903;52.108;9.358;2024-02-04T08:02:59;9.20;72.20
64987;DHT22;67903;52.108;9.358;2024-02-04T08:05:44;9.20;72.50
64987;DHT22;67903;52.108;9.358;2024-02-04T08:08:30;9.30;72.60
64987;DHT22;67903;52.108;9.358;2024-02-04T08:11:16;9.30;72.80
64987;DHT22;67903;52.108;9.358;2024-02-04T08:14:03;9.40;72.50
64987;DHT22;67903;52.108;9.358;2024-02-04T08:16:48;9.20;72.30
64987;DHT22;67903;52.108;9.358;2024-02-04T08:19:34;9.20;72.20
64987;DHT22;67903;52.108;9.358;2024-02-04T08:22:20;9.20;71.80
64987;DHT22;67903;52.108;9.358;2024-02-04T08:25:06;9.20;71.80
64987;DHT22;67903;52.108;9.358;2024-02-04T08:27:52;9.20;71.50
64987;DHT22;67903;52.108;9.358;2024-02-04T08:30:40;9.20;71.20
64987;DHT22;67903;52.108;9.358;2024-02-04T08:33:26;9.10;71.50
64987;DHT22;67903;52.108;9.358;2024-02-04T08:36:11;9.10;71.60
64987;DHT22;67903;52.108;9.358;2024-02-04T08:38:57;9.10;71.70
64987;DHT22;67903;52.108;9.358;2024-02-04T08:41:42;9.00;71.60
64987;DHT22;67903;52.108;9.358;2024-02-04T08:44:28;9.00;71.50
64987;DHT22;67903;52.108;9.358;2024-02-04T08:47:24;9.00;72.20
64987;DHT22;67903;52.108;9.358;2024-02-04T08:50:10;8.90;72.30
64987;DHT22;67903;52.108;9.358;2024-02-04T08:52:58;8.90;72.70
64987;DHT22;67903;52.108;9.358;2024-02-04T08:55:43;8.90;72.20
64987;DHT22;67903;52.108;9.358;2024-02-04T08:58:29;8.90;72.50
64987;DHT22;67903;52.108;9.358;2024-02-04T09:01:14;8.90;71.70
64987;DHT22;67903;52.108;9.358;2024-02-04T09:04:00;9.00;71.20
64987;DHT22;67903;52.108;9.358;2024-02-04T09:06:46;9.00;71.10
64987;DHT22;67903;52.108;9.358;2024-02-04T09:09:31;9.00;70.60
64987;DHT22;67903;52.108;9.358;2024-02-04T09:12:17;8.90;70.40
64987;DHT22;67903;52.108;9.358;2024-02-04T09:15:03;9.00;69.20
64987;DHT22;67903;52.108;9.358;2024-02-04T09:17:50;9.00;69.10
64987;DHT22;67903;52.108;9.358;2024-02-04T09:20:35;9.00;69.50
64987;DHT22;67903;52.108;9.358;2024-02-04T09:23:21;9.00;69.70
64987;DHT22;67903;52.108;9.358;2024-02-04T09:26:06;9.00;69.30
64987;DHT22;67903;52.108;9.358;2024-02-04T09:28:52;9.00;69.50
64987;DHT22;67903;52.108;9.358;2024-02-04T09:31:38;9.00;69.40
64987;DHT22;67903;52.108;9.358;2024-02-04T09:34:23;9.00;69.10
64987;DHT22;67903;52.108;9.358;2024-02-04T09:37:10;9.00;68.70
64987;DHT22;67903;52.108;9.358;2024-02-04T09:39:56;9.00;69.40
64987;DHT22;67903;52.108;9.358;2024-02-04T09:42:42;9.00;69.30
64987;DHT22;67903;52.108;9.358;2024-02-04T09:45:28;9.00;69.10
64987;DHT22;67903;52.108;9.358;2024-02-04T09:48:17;9.10;68.90
64987;DHT22;67903;52.108;9.358;2024-02-04T09:51:04;9.20;68.70
64987;DHT22;67903;52.108;9.358;2024-02-04T09:53:53;9.20;68.10
64987;DHT22;67903;52.108;9.358;2024-02-04T09:56:39;9.20;68.60
64987;DHT22;67903;52.108;9.358;2024-02-04T09:59:25;9.20;68.20
64987;DHT22;67903;52.108;9.358;2024-02-04T10:02:11;9.20;68.40
64987;DHT22;67903;52.108;9.358;2024-02-04T10:05:00;9.20;68.20
64987;DHT22;67903;52.108;9.358;2024-02-04T10:07:47;9.30;68.00
64987;DHT22;67903;52.108;9.358;2024-02-04T10:10:33;9.30;68.20
64987;DHT22;67903;52.108;9.358;2024-02-04T10:13:19;9.40;67.80
64987;DHT22;67903;52.108;9.358;2024-02-04T10:16:04;9.40;67.10
64987;DHT22;67903;52.108;9.358;2024-02-04T10:18:51;9.40;67.10
64987;DHT22;67903;52.108;9.358;2024-02-04T10:21:39;9.40;66.70
64987;DHT22;67903;52.108;9.358;2024-02-04T10:24:24;9.60;65.90
64987;DHT22;67903;52.108;9.358;2024-02-04T10:27:10;9.50;66.00
64987;DHT22;67903;52.108;9.358;2024-02-04T10:30:06;9.50;66.20
64987;DHT22;67903;52.108;9.358;2024-02-04T10:32:53;9.40;66.20
64987;DHT22;67903;52.108;9.358;2024-02-04T10:35:38;9.40;66.20
64987;DHT22;67903;52.108;9.358;2024-02-04T10:38:24;9.50;65.80
64987;DHT22;67903;52.108;9.358;2024-02-04T10:41:15;9.40;65.90
64987;DHT22;67903;52.108;9.358;2024-02-04T10:44:03;9.40;66.40
64987;DHT22;67903;52.108;9.358;2024-02-04T10:46:50;9.40;66.20
64987;DHT22;67903;52.108;9.358;2024-02-04T10:49:37;9.50;66.20
64987;DHT22;67903;52.108;9.358;2024-02-04T10:52:27;9.40;66.00
64987;DHT22;67903;52.108;9.358;2024-02-04T10:55:14;9.40;66.20
64987;DHT22;67903;52.108;9.358;2024-02-04T10:58:02;9.40;66.10
64987;DHT22;67903;52.108;9.358;2024-02-04T11:00:48;9.50;66.50
64987;DHT22;67903;52.108;9.358;2024-02-04T11:03:35;9.40;66.70
64987;DHT22;67903;52.108;9.358;2024-02-04T11:06:22;9.40;67.00
64987;DHT22;67903;52.108;9.358;2024-02-04T11:09:09;9.40;67.30
64987;DHT22;67903;52.108;9.358;2024-02-04T11:11:59;9.40;67.50
64987;DHT22;67903;52.108;9.358;2024-02-04T11:14:49;9.40;67.80
64987;DHT22;67903;52.108;9.358;2024-02-04T11:27:01;9.50;67.50
64987;DHT22;67903;52.108;9.358;2024-02-04T11:29:49;9.50;67.60
64987;DHT22;67903;52.108;9.358;2024-02-04T11:32:37;9.40;67.90
64987;DHT22;67903;52.108;9.358;2024-02-04T11:35:24;9.40;68.10
64987;DHT22;67903;52.108;9.358;2024-02-04T11:38:10;9.40;68.00
64987;DHT22;67903;52.108;9.358;2024-02-04T11:40:56;9.40;67.90
64987;DHT22;67903;52.108;9.358;2024-02-04T11:43:45;9.40;68.30
64987;DHT22;67903;52.108;9.358;2024-02-04T11:46:31;9.40;68.50
64987;DHT22;67903;52.108;9.358;2024-02-04T11:49:19;9.40;68.30
64987;DHT22;67903;52.108;9.358;2024-02-04T11:52:18;9.40;68.10
64987;DHT22;67903;52.108;9.358;2024-02-04T11:55:05;9.40;68.20
64987;DHT22;67903;52.108;9.358;2024-02-04T11:57:54;9.40;68.20
64987;DHT22;67903;52.108;9.358;2024-02-04T12:00:42;9.40;68.30
64987;DHT22;67903;52.108;9.358;2024-02-04T12:03:33;9.50;68.30
64987;DHT22;67903;52.108;9.358;2024-02-04T12:06:20;9.40;68.10
64987;DHT22;67903;52.108;9.358;2024-02-04T12:09:06;9.40;68.70
64987;DHT22;67903;52.108;9.358;2024-02-04T12:11:53;9.40;68.50
64987;DHT22;67903;52.108;9.358;2024-02-04T12:14:39;9.40;68.50
64987;DHT22;67903;52.108;9.358;2024-02-04T12:17:25;9.40;68.80
64987;DHT22;67903;52.108;9.358;2024-02-04T12:20:11;9.40;69.00
64987;DHT22;67903;52.108;9.358;2024-02-04T12:22:56;9.40;69.30
64987;DHT22;67903;52.108;9.358;2024-02-04T12:25:42;9.40;69.50
64987;DHT22;67903;52.108;9.358;2024-02-04T12:28:29;9.50;69.70
64987;DHT22;67903;52.108;9.358;2024-02-04T12:31:19;9.40;70.00
64987;DHT22;67903;52.108;9.358;2024-02-04T12:34:04;9.40;70.30
64987;DHT22;67903;52.108;9.358;2024-02-04T12:36:58;9.40;70.70
64987;DHT22;67903;52.108;9.358;2024-02-04T12:39:44;9.30;71.30
64987;DHT22;67903;52.108;9.358;2024-02-04T12:42:30;9.40;70.90
64987;DHT22;67903;52.108;9.358;2024-02-04T12:45:16;9.40;71.00
64987;DHT22;67903;52.108;9.358;2024-02-04T12:48:02;9.40;71.30
64987;DHT22;67903;52.108;9.358;2024-02-04T12:50:48;9.50;70.50
64987;DHT22;67903;52.108;9.358;2024-02-04T12:53:34;9.40;70.90
64987;DHT22;67903;52.108;9.358;2024-02-04T12:56:20;9.40;71.10
64987;DHT22;67903;52.108;9.358;2024-02-04T12:59:05;9.40;71.50
64987;DHT22;67903;52.108;9.358;2024-02-04T13:01:55;9.40;72.00
64987;DHT22;67903;52.108;9.358;2024-02-04T13:04:42;9.40;71.80
64987;DHT22;67903;52.108;9.358;2024-02-04T13:07:28;9.40;71.80
64987;DHT22;67903;52.108;9.358;2024-02-04T13:10:14;9.40;71.90
64987;DHT22;67903;52.108;9.358;2024-02-04T13:15:45;9.30;72.70
64987;DHT22;67903;52.108;9.358;2024-02-04T13:18:31;9.30;72.90
64987;DHT22;67903;52.108;9.358;2024-02-04T13:21:17;9.30;72.80
64987;DHT22;67903;52.108;9.358;2024-02-04T13:24:05;9.40;73.00
64987;DHT22;67903;52.108;9.358;2024-02-04T13:26:51;9.40;73.30
64987;DHT22;67903;52.108;9.358;2024-02-04T13:29:37;9.40;73.90
64987;DHT22;67903;52.108;9.358;2024-02-04T13:32:22;9.40;73.60
64987;DHT22;67903;52.108;9.358;2024-02-04T13:35:08;9.40;73.90
64987;DHT22;67903;52.108;9.358;2024-02-04T13:38:03;9.40;74.00
64987;DHT22;67903;52.108;9.358;2024-02-04T13:40:51;9.60;73.80
64987;DHT22;67903;52.108;9.358;2024-02-04T13:43:36;9.50;74.00
64987;DHT22;67903;52.108;9.358;2024-02-04T13:46:22;9.60;74.20
64987;DHT22;67903;52.108;9.358;2024-02-04T13:49:07;9.60;74.30
64987;DHT22;67903;52.108;9.358;2024-02-04T13:51:53;9.60;74.40
64987;DHT22;67903;52.108;9.358;2024-02-04T13:54:39;9.60;74.30
64987;DHT22;67903;52.108;9.358;2024-02-04T13:57:24;9.70;74.10
64987;DHT22;67903;52.108;9.358;2024-02-04T14:00:11;9.70;74.00
64987;DHT22;67903;52.108;9.358;2024-02-04T14:02:56;9.70;74.00
64987;DHT22;67903;52.108;9.358;2024-02-04T14:05:42;9.70;73.70
64987;DHT22;67903;52.108;9.358;2024-02-04T14:08:27;9.70;73.60
64987;DHT22;67903;52.108;9.358;2024-02-04T14:11:13;9.60;73.90
64987;DHT22;67903;52.108;9.358;2024-02-04T14:13:58;9.70;73.90
64987;DHT22;67903;52.108;9.358;2024-02-04T14:16:44;9.70;73.50
64987;DHT22;67903;52.108;9.358;2024-02-04T14:19:29;9.70;73.20
64987;DHT22;67903;52.108;9.358;2024-02-04T14:22:15;9.70;73.20
64987;DHT22;67903;52.108;9.358;2024-02-04T14:25:03;9.70;73.30
64987;DHT22;67903;52.108;9.358;2024-02-04T14:27:48;9.70;72.80
64987;DHT22;67903;52.108;9.358;2024-02-04T14:30:34;9.70;72.90
64987;DHT22;67903;52.108;9.358;2024-02-04T14:33:20;9.70;72.40
64987;DHT22;67903;52.108;9.358;2024-02-04T14:36:06;9.70;72.50
64987;DHT22;67903;52.108;9.358;2024-02-04T14:38:52;9.70;72.60
64987;DHT22;67903;52.108;9.358;2024-02-04T14:41:38;9.70;72.40
64987;DHT22;67903;52.108;9.358;2024-02-04T14:44:23;9.70;72.40
64987;DHT22;67903;52.108;9.358;2024-02-04T14:47:09;9.70;72.40
64987;DHT22;67903;52.108;9.358;2024-02-04T14:49:54;9.70;72.50
64987;DHT22;67903;52.108;9.358;2024-02-04T14:52:40;9.60;72.90
64987;DHT22;67903;52.108;9.358;2024-02-04T14:55:27;9.70;72.80
64987;DHT22;67903;52.108;9.358;2024-02-04T14:58:13;9.60;72.90
64987;DHT22;67903;52.108;9.358;2024-02-04T15:00:58;9.60;72.80
64987;DHT22;67903;52.108;9.358;2024-02-04T15:03:44;9.50;72.50
64987;DHT22;67903;52.108;9.358;2024-02-04T15:06:30;9.40;72.70
64987;DHT22;67903;52.108;9.358;2024-02-04T15:09:17;9.50;71.20
64987;DHT22;67903;52.108;9.358;2024-02-04T15:12:03;9.50;71.00
64987;DHT22;67903;52.108;9.358;2024-02-04T15:14:49;9.40;70.50
64987;DHT22;67903;52.108;9.358;2024-02-04T15:17:34;9.40;71.50
64987;DHT22;67903;52.108;9.358;2024-02-04T15:20:20;9.20;71.60
64987;DHT22;67903;52.108;9.358;2024-02-04T15:23:09;9.20;71.80
64987;DHT22;67903;52.108;9.358;2024-02-04T15:25:55;9.20;74.30
64987;DHT22;67903;52.108;9.358;2024-02-04T15:28:41;9.00;75.10
64987;DHT22;67903;52.108;9.358;2024-02-04T15:31:27;8.90;76.20
64987;DHT22;67903;52.108;9.358;2024-02-04T15:34:14;8.80;77.90
64987;DHT22;67903;52.108;9.358;2024-02-04T15:37:03;8.60;79.00
64987;DHT22;67903;52.108;9.358;2024-02-04T15:39:49;8.50;80.10
64987;DHT22;67903;52.108;9.358;2024-02-04T15:42:34;8.50;80.00
64987;DHT22;67903;52.108;9.358;2024-02-04T15:45:20;8.40;81.20
64987;DHT22;67903;52.108;9.358;2024-02-04T15:48:07;8.40;82.00
64987;DHT22;67903;52.108;9.358;2024-02-04T15:50:54;8.30;82.90
64987;DHT22;67903;52.108;9.358;2024-02-04T15:53:40;8.30;84.20
64987;DHT22;67903;52.108;9.358;2024-02-04T15:56:27;8.20;85.30
64987;DHT22;67903;52.108;9.358;2024-02-04T15:59:18;8.10;86.80
64987;DHT22;67903;52.108;9.358;2024-02-04T16:02:06;8.10;87.10
64987;DHT22;67903;52.108;9.358;2024-02-04T16:04:53;8.10;87.30
64987;DHT22;67903;52.108;9.358;2024-02-04T16:07:41;8.00;87.00
64987;DHT22;67903;52.108;9.358;2024-02-04T16:10:27;8.00;88.10
64987;DHT22;67903;52.108;9.358;2024-02-04T16:13:12;8.00;89.10
64987;DHT22;67903;52.108;9.358;2024-02-04T16:16:01;8.00;89.00
64987;DHT22;67903;52.108;9.358;2024-02-04T16:18:47;8.00;89.20
64987;DHT22;67903;52.108;9.358;2024-02-04T16:21:33;8.00;89.10
64987;DHT22;67903;52.108;9.358;2024-02-04T16:24:18;8.00;89.40
64987;DHT22;67903;52.108;9.358;2024-02-04T16:27:04;8.00;90.30
64987;DHT22;67903;52.108;9.358;2024-02-04T16:29:50;8.00;90.70
64987;DHT22;67903;52.108;9.358;2024-02-04T16:32:35;8.00;90.90
64987;DHT22;67903;52.108;9.358;2024-02-04T16:35:21;7.90;91.10
64987;DHT22;67903;52.108;9.358;2024-02-04T16:38:06;7.80;93.00
64987;DHT22;67903;52.108;9.358;2024-02-04T16:40:52;7.80;95.30
64987;DHT22;67903;52.108;9.358;2024-02-04T16:43:37;7.70;96.90
64987;DHT22;67903;52.108;9.358;2024-02-04T16:46:23;7.80;94.70
64987;DHT22;67903;52.108;9.358;2024-02-04T16:49:09;7.80;96.10
64987;DHT22;67903;52.108;9.358;2024-02-04T16:52:04;7.70;95.70
64987;DHT22;67903;52.108;9.358;2024-02-04T16:54:50;7.70;96.50
64987;DHT22;67903;52.108;9.358;2024-02-04T16:57:35;7.80;94.80
64987;DHT22;67903;52.108;9.358;2024-02-04T17:00:21;8.00;93.10
64987;DHT22;67903;52.108;9.358;2024-02-04T17:03:08;8.00;93.30
64987;DHT22;67903;52.108;9.358;2024-02-04T17:05:54;8.00;93.30
64987;DHT22;67903;52.108;9.358;2024-02-04T17:08:41;7.80;94.30
64987;DHT22;67903;52.108;9.358;2024-02-04T17:11:27;7.80;94.70
64987;DHT22;67903;52.108;9.358;2024-02-04T17:14:13;7.80;95.40
64987;DHT22;67903;52.108;9.358;2024-02-04T17:17:05;8.00;95.40
64987;DHT22;67903;52.108;9.358;2024-02-04T17:22:55;8.00;95.70
64987;DHT22;67903;52.108;9.358;2024-02-04T17:25:43;8.00;96.50
64987;DHT22;67903;52.108;9.358;2024-02-04T17:28:29;7.90;98.30
64987;DHT22;67903;52.108;9.358;2024-02-04T17:31:15;7.90;98.30
64987;DHT22;67903;52.108;9.358;2024-02-04T17:34:00;8.00;97.00
64987;DHT22;67903;52.108;9.358;2024-02-04T17:36:46;8.00;97.70
64987;DHT22;67903;52.108;9.358;2024-02-04T17:39:32;8.20;96.00
64987;DHT22;67903;52.108;9.358;2024-02-04T17:42:18;8.20;95.80
64987;DHT22;67903;52.108;9.358;2024-02-04T17:45:04;8.20;96.90
64987;DHT22;67903;52.108;9.358;2024-02-04T17:47:52;8.20;97.80
64987;DHT22;67903;52.108;9.358;2024-02-04T17:50:37;8.10;98.40
64987;DHT22;67903;52.108;9.358;2024-02-04T17:53:23;8.30;97.30
64987;DHT22;67903;52.108;9.358;2024-02-04T17:56:14;8.30;97.50
64987;DHT22;67903;52.108;9.358;2024-02-04T17:59:00;8.40;96.80
64987;DHT22;67903;52.108;9.358;2024-02-04T18:01:45;8.30;97.40